Time;durP1;ratioP1;P1;durP2;ratioP2;P2;SDS_P1;SDS_P2;PMS_P1;PMS_P2;Temp;Humidity;BMP_temperature;BMP_pressure;BME280_temperature;BME280_humidity;BME280_pressure;Samples;Min_cycle;Max_cycle;Signal;HPM_P1;HPM_P2
2023/01/10 00:00:34;;;;;;;55.65;30.60;;;4.90;99.90;;;;;;4990703;28;20030;-82
2023/01/10 00:03:04;;;;;;;64.65;33.63;;;4.90;99.90;;;;;;4973065;28;20045;-82
2023/01/10 00:05:31;;;;;;;56.28;29.83;;;4.90;99.90;;;;;;4972790;28;20064;-83
2023/01/10 00:07:57;;;;;;;42.33;22.92;;;4.80;99.90;;;;;;4972902;28;20044;-83
2023/01/10 00:10:24;;;;;;;47.78;25.58;;;4.90;99.90;;;;;;4971548;28;20388;-82
2023/01/10 00:15:35;;;;;;;39.88;21.48;;;4.80;99.90;;;;;;4974599;28;20041;-82
2023/01/10 00:18:01;;;;;;;38.17;22.13;;;4.80;99.90;;;;;;4974116;28;20072;-83
2023/01/10 00:20:27;;;;;;;35.80;21.40;;;4.80;99.90;;;;;;4956707;28;20026;-83
2023/01/10 00:22:52;;;;;;;33.08;19.33;;;4.80;99.90;;;;;;4989103;28;20031;-83
2023/01/10 00:25:21;;;;;;;37.05;21.30;;;4.80;99.90;;;;;;4988919;28;20460;-83
2023/01/10 00:28:20;;;;;;;39.38;21.98;;;4.70;99.90;;;;;;4988792;28;20073;-82
2023/01/10 00:30:39;;;;;;;39.17;22.13;;;4.80;99.90;;;;;;4974904;28;20038;-82
2023/01/10 00:33:07;;;;;;;35.60;22.55;;;4.80;99.90;;;;;;4973734;28;20031;-82
2023/01/10 00:35:33;;;;;;;36.63;21.90;;;4.70;99.90;;;;;;4956500;28;20018;-82
2023/01/10 00:38:05;;;;;;;36.63;21.73;;;4.70;99.90;;;;;;4974066;28;20027;-83
2023/01/10 00:40:32;;;;;;;37.17;22.23;;;4.70;99.90;;;;;;4989022;28;20096;-83
2023/01/10 00:45:45;;;;;;;36.28;22.73;;;4.70;99.90;;;;;;4973925;28;20087;-82
2023/01/10 00:48:12;;;;;;;35.00;21.25;;;4.60;99.90;;;;;;4956308;28;20023;-82
2023/01/10 00:50:38;;;;;;;42.42;23.90;;;4.70;99.90;;;;;;4956341;28;20037;-82
2023/01/10 00:53:03;;;;;;;36.22;20.95;;;4.60;99.90;;;;;;4988492;28;20030;-83
2023/01/10 00:55:30;;;;;;;37.45;22.15;;;4.60;99.90;;;;;;4988819;28;20015;-82
2023/01/10 00:57:55;;;;;;;41.60;23.25;;;4.70;99.90;;;;;;4973427;28;20022;-82
2023/01/10 01:00:21;;;;;;;34.22;20.77;;;4.60;99.90;;;;;;4973404;28;20502;-82
2023/01/10 01:02:48;;;;;;;37.95;22.88;;;4.60;99.90;;;;;;4988493;28;20503;-83
2023/01/10 01:05:14;;;;;;;40.65;21.52;;;4.60;99.90;;;;;;4988327;28;20045;-79
2023/01/10 01:07:40;;;;;;;35.90;20.90;;;4.60;99.90;;;;;;4973206;28;20034;-79
2023/01/10 01:12:50;;;;;;;39.35;22.13;;;4.60;99.90;;;;;;4973532;28;20111;-79
2023/01/10 01:15:15;;;;;;;35.95;20.88;;;4.60;99.90;;;;;;4973247;28;20023;-82
2023/01/10 01:17:41;;;;;;;37.30;21.83;;;4.60;99.90;;;;;;4988107;28;20400;-83
2023/01/10 01:20:07;;;;;;;36.08;22.50;;;4.60;99.90;;;;;;4988371;28;20027;-83
2023/01/10 01:22:33;;;;;;;39.22;21.65;;;4.60;99.90;;;;;;4973059;28;20412;-79
2023/01/10 01:24:59;;;;;;;38.63;21.50;;;4.60;99.90;;;;;;4986857;28;20023;-81
2023/01/10 01:27:24;;;;;;;36.97;22.55;;;4.60;99.90;;;;;;4988013;28;20047;-79
2023/01/10 01:29:50;;;;;;;37.47;21.92;;;4.60;99.90;;;;;;4973072;28;20023;-82
2023/01/10 01:32:15;;;;;;;85.75;43.75;;;4.60;99.90;;;;;;4987972;28;20022;-78
2023/01/10 01:34:41;;;;;;;53.63;28.67;;;4.60;99.90;;;;;;4955710;28;20475;-82
2023/01/10 01:37:06;;;;;;;41.88;22.17;;;4.60;99.90;;;;;;4987924;28;20019;-79
2023/01/10 01:39:32;;;;;;;41.50;25.48;;;4.60;99.90;;;;;;4987890;28;20042;-82
2023/01/10 01:41:59;;;;;;;40.90;23.13;;;4.60;99.90;;;;;;4972920;28;20537;-78
2023/01/10 01:44:30;;;;;;;42.38;23.00;;;4.60;99.90;;;;;;4973069;28;20072;-82
2023/01/10 01:47:11;;;;;;;41.15;23.00;;;4.60;99.90;;;;;;4973012;28;20108;-82
2023/01/10 01:49:40;;;;;;;47.45;24.65;;;4.60;99.90;;;;;;4955555;28;20033;-78
2023/01/10 01:52:12;;;;;;;40.60;24.88;;;4.60;99.90;;;;;;4955230;28;20051;-81
2023/01/10 01:54:38;;;;;;;49.22;26.45;;;4.60;99.90;;;;;;4955567;28;20142;-78
2023/01/10 01:57:12;;;;;;;45.13;25.80;;;4.60;99.90;;;;;;4987628;28;20055;-77
2023/01/10 01:59:43;;;;;;;47.03;28.08;;;4.60;99.90;;;;;;4973359;28;20380;-78
2023/01/10 02:02:31;;;;;;;47.70;26.25;;;4.60;99.90;;;;;;4955093;28;20019;-82
2023/01/10 02:05:09;;;;;;;44.53;24.25;;;4.60;99.90;;;;;;4972919;28;20030;-82
2023/01/10 02:07:44;;;;;;;48.63;25.10;;;4.60;99.90;;;;;;4955208;28;20400;-78
2023/01/10 02:10:35;;;;;;;48.00;26.75;;;4.60;99.90;;;;;;4955139;28;20058;-78
2023/01/10 02:13:04;;;;;;;48.28;26.75;;;4.60;99.90;;;;;;4954952;28;20082;-78
2023/01/10 02:15:30;;;;;;;42.33;24.10;;;4.60;99.90;;;;;;4955190;28;20033;-78
2023/01/10 02:17:56;;;;;;;40.38;23.50;;;4.50;99.90;;;;;;4972286;28;20023;-78
2023/01/10 02:20:23;;;;;;;38.53;22.52;;;4.50;99.90;;;;;;4972601;28;20050;-82
2023/01/10 02:23:08;;;;;;;35.20;21.25;;;4.50;99.90;;;;;;4954944;28;20547;-77
2023/01/10 02:26:11;;;;;;;38.03;21.92;;;4.50;99.90;;;;;;4972178;28;20499;-81
2023/01/10 02:28:40;;;;;;;;;;;4.50;99.90;;;;;;4955544;28;20392;-78
2023/01/10 02:31:36;;;;;;;35.30;18.48;;;4.50;99.90;;;;;;4972323;28;19913;-77
2023/01/10 02:34:11;;;;;;;37.53;20.73;;;4.50;99.90;;;;;;4972142;28;20488;-78
2023/01/10 02:36:58;;;;;;;30.23;16.75;;;4.50;99.90;;;;;;4954420;28;20045;-80
2023/01/10 02:39:58;;;;;;;25.42;15.95;;;4.40;99.90;;;;;;4979359;28;20030;-80
2023/01/10 02:42:42;;;;;;;29.30;14.45;;;4.40;99.90;;;;;;5058505;28;20117;-77
2023/01/10 02:45:17;;;;;;;31.42;14.30;;;4.40;99.90;;;;;;4991510;28;20034;-81
2023/01/10 02:47:43;;;;;;;24.63;14.20;;;4.40;99.90;;;;;;4991391;28;20042;-81
2023/01/10 02:50:41;;;;;;;26.20;13.98;;;4.40;99.90;;;;;;4991389;28;20590;-82
2023/01/10 02:53:20;;;;;;;24.92;14.02;;;4.40;99.90;;;;;;5016321;28;20050;-77
2023/01/10 02:56:07;;;;;;;19.25;10.55;;;4.40;99.90;;;;;;4972123;28;20026;-81
2023/01/10 02:58:46;;;;;;;22.58;12.50;;;4.40;99.90;;;;;;4954261;28;20472;-79
2023/01/10 03:01:34;;;;;;;17.67;10.68;;;4.40;99.90;;;;;;4954591;28;20034;-77
2023/01/10 03:04:27;;;;;;;18.58;9.82;;;4.40;99.90;;;;;;4954412;28;20062;-81
2023/01/10 03:07:05;;;;;;;15.95;10.02;;;4.40;99.90;;;;;;4971671;28;20096;-78
2023/01/10 03:09:44;;;;;;;12.38;8.45;;;4.40;99.90;;;;;;4954937;28;20047;-82
2023/01/10 03:13:00;;;;;;;16.10;9.63;;;4.40;99.90;;;;;;4954619;28;20404;-78
2023/01/10 03:15:30;;;;;;;15.25;7.45;;;4.40;99.90;;;;;;4950728;28;20038;-81
2023/01/10 03:17:59;;;;;;;12.43;8.00;;;4.40;99.90;;;;;;4981281;28;20030;-82
2023/01/10 03:20:28;;;;;;;11.98;7.85;;;4.40;99.90;;;;;;4973693;28;20025;-82
2023/01/10 03:22:55;;;;;;;13.23;8.48;;;4.30;99.90;;;;;;4990929;28;20438;-78
2023/01/10 03:25:25;;;;;;;13.73;8.63;;;4.40;99.90;;;;;;4991214;28;20097;-82
2023/01/10 03:27:54;;;;;;;13.35;8.48;;;4.30;99.90;;;;;;4973366;28;20057;-81
2023/01/10 03:30:34;;;;;;;13.23;8.63;;;4.30;99.90;;;;;;4991039;28;20025;-82
2023/01/10 03:33:01;;;;;;;12.52;8.07;;;4.30;99.90;;;;;;4973273;28;20014;-82
2023/01/10 03:35:49;;;;;;;16.23;9.15;;;4.30;99.90;;;;;;4973532;28;20029;-82
2023/01/10 03:38:46;;;;;;;16.35;8.68;;;4.30;99.90;;;;;;4990667;28;20030;-78
2023/01/10 03:41:21;;;;;;;16.23;8.93;;;4.30;99.90;;;;;;4991001;28;20126;-82
2023/01/10 03:46:56;;;;;;;16.40;8.05;;;4.30;99.90;;;;;;4990734;28;20056;-83
2023/01/10 03:49:24;;;;;;;14.10;8.45;;;4.30;99.90;;;;;;4975986;28;20027;-78
2023/01/10 03:51:51;;;;;;;13.05;7.63;;;4.20;99.90;;;;;;4993846;28;20026;-77
2023/01/10 03:54:17;;;;;;;16.08;8.90;;;4.20;99.90;;;;;;4994253;28;20483;-78
2023/01/10 03:56:48;;;;;;;12.65;8.02;;;4.20;99.90;;;;;;4994148;28;20058;-82
2023/01/10 03:59:18;;;;;;;13.27;8.27;;;4.10;99.90;;;;;;4976393;28;20365;-82
2023/01/10 04:01:43;;;;;;;14.85;7.97;;;4.20;99.90;;;;;;4976670;28;20023;-77
2023/01/10 04:04:10;;;;;;;16.08;8.98;;;4.20;99.90;;;;;;4993744;28;20042;-80
2023/01/10 04:06:35;;;;;;;14.13;9.02;;;4.10;99.90;;;;;;4976553;28;20034;-82
2023/01/10 04:09:01;;;;;;;17.67;9.30;;;4.10;99.90;;;;;;4993692;28;20391;-78
2023/01/10 04:11:27;;;;;;;13.10;7.57;;;4.20;99.90;;;;;;4976462;28;20048;-83
2023/01/10 04:13:52;;;;;;;12.38;7.72;;;4.10;99.90;;;;;;4993584;28;20038;-78
2023/01/10 04:16:19;;;;;;;15.27;8.23;;;4.10;99.90;;;;;;4993979;28;20441;-82
2023/01/10 04:18:44;;;;;;;10.10;6.68;;;4.10;99.90;;;;;;4976075;28;20030;-82
2023/01/10 04:21:10;;;;;;;11.43;5.90;;;4.10;99.90;;;;;;4976300;28;20018;-82
2023/01/10 04:23:36;;;;;;;12.48;6.93;;;4.10;99.90;;;;;;4976039;28;20130;-78
2023/01/10 04:26:01;;;;;;;8.40;5.72;;;4.10;99.90;;;;;;4993657;28;20480;-83
2023/01/10 04:28:27;;;;;;;9.68;6.90;;;4.10;99.90;;;;;;4975932;28;20027;-83
2023/01/10 04:30:52;;;;;;;6.32;4.93;;;4.00;99.90;;;;;;4976193;28;20027;-81
2023/01/10 04:33:18;;;;;;;9.95;5.75;;;4.00;99.90;;;;;;4975799;28;20090;-81
2023/01/10 04:35:51;;;;;;;7.05;5.10;;;4.00;99.90;;;;;;4976196;28;20072;-82
2023/01/10 04:38:17;;;;;;;9.00;5.22;;;3.90;99.90;;;;;;4975772;28;20023;-77
2023/01/10 04:40:43;;;;;;;7.72;5.53;;;3.90;99.90;;;;;;4993544;28;20442;-78
2023/01/10 04:43:10;;;;;;;8.80;4.85;;;3.90;99.90;;;;;;4975654;28;20475;-82
2023/01/10 04:45:36;;;;;;;7.90;4.85;;;3.80;99.90;;;;;;4976016;28;20018;-78
2023/01/10 04:48:02;;;;;;;8.25;4.80;;;3.80;99.90;;;;;;4975662;28;20440;-82
2023/01/10 04:50:28;;;;;;;7.85;4.65;;;3.80;99.90;;;;;;4976032;28;20022;-77
2023/01/10 04:52:54;;;;;;;7.05;4.10;;;3.80;99.90;;;;;;4992851;28;20110;-83
2023/01/10 04:55:19;;;;;;;7.75;4.80;;;3.80;99.90;;;;;;4976029;28;20466;-82
2023/01/10 04:57:45;;;;;;;5.35;4.28;;;3.80;99.90;;;;;;4975410;28;20022;-82
2023/01/10 05:00:12;;;;;;;7.80;5.15;;;3.80;99.90;;;;;;4975464;28;20015;-82
2023/01/10 05:02:42;;;;;;;8.07;4.82;;;3.80;99.90;;;;;;4992822;28;20026;-77
2023/01/10 05:05:12;;;;;;;6.05;4.82;;;3.80;99.90;;;;;;4993247;28;20018;-82
2023/01/10 05:07:37;;;;;;;9.15;5.03;;;3.70;99.90;;;;;;4975339;28;20388;-77
2023/01/10 05:10:04;;;;;;;10.25;4.93;;;3.80;99.90;;;;;;4992657;28;20054;-83
2023/01/10 05:12:30;;;;;;;10.75;4.93;;;3.70;99.90;;;;;;4975190;28;20019;-77
2023/01/10 05:14:55;;;;;;;9.70;4.75;;;3.70;99.90;;;;;;4993063;28;20408;-77
2023/01/10 05:17:21;;;;;;;9.10;4.25;;;3.70;99.90;;;;;;4992229;28;20018;-82
2023/01/10 05:19:46;;;;;;;9.98;5.07;;;3.70;99.90;;;;;;4991346;28;20042;-78
2023/01/10 05:22:12;;;;;;;7.47;5.95;;;3.70;99.90;;;;;;4986521;28;20031;-82
2023/01/10 05:24:38;;;;;;;8.70;4.78;;;3.70;99.90;;;;;;4973589;28;20026;-81
2023/01/10 05:27:03;;;;;;;6.78;3.90;;;3.70;99.90;;;;;;5056428;28;20394;-81
2023/01/10 05:29:29;;;;;;;8.10;4.70;;;3.70;99.90;;;;;;4973281;28;20019;-78
2023/01/10 05:31:55;;;;;;;5.90;4.63;;;3.60;99.90;;;;;;4955942;28;20054;-82
2023/01/10 05:34:20;;;;;;;7.95;4.20;;;3.60;99.90;;;;;;4985752;28;20030;-82
2023/01/10 05:36:46;;;;;;;5.80;4.13;;;3.60;99.90;;;;;;4991256;28;20536;-77
2023/01/10 05:39:12;;;;;;;6.68;4.00;;;3.60;99.90;;;;;;4976730;28;20019;-78
2023/01/10 05:41:39;;;;;;;7.45;4.53;;;3.70;99.90;;;;;;4973173;28;20023;-77
2023/01/10 05:44:05;;;;;;;9.55;4.65;;;3.70;99.90;;;;;;4955522;28;20033;-76
2023/01/10 05:46:31;;;;;;;13.43;5.18;;;3.70;99.90;;;;;;4973235;28;20065;-82
2023/01/10 05:48:56;;;;;;;6.97;4.57;;;3.70;99.90;;;;;;4972816;28;20090;-82
2023/01/10 05:51:22;;;;;;;5.28;4.38;;;3.70;99.90;;;;;;4972976;28;20027;-83
2023/01/10 05:53:47;;;;;;;8.55;4.90;;;3.70;99.90;;;;;;4955287;28;20023;-77
2023/01/10 05:56:13;;;;;;;8.13;5.20;;;3.70;99.90;;;;;;4972877;28;20431;-82
2023/01/10 05:58:39;;;;;;;10.15;4.85;;;3.80;99.90;;;;;;5055982;28;20066;-77
2023/01/10 06:01:04;;;;;;;8.88;4.68;;;3.80;99.90;;;;;;4975699;28;20023;-78
2023/01/10 06:03:30;;;;;;;12.60;5.03;;;3.80;99.90;;;;;;4986534;28;20022;-78
2023/01/10 06:05:56;;;;;;;7.53;5.20;;;3.80;99.90;;;;;;4974527;28;20030;-78
2023/01/10 06:08:23;;;;;;;7.55;5.32;;;3.70;99.90;;;;;;4974154;28;20475;-77
2023/01/10 06:10:48;;;;;;;6.45;4.82;;;3.80;99.90;;;;;;4991009;28;20439;-77
2023/01/10 06:13:14;;;;;;;10.43;5.25;;;3.80;99.90;;;;;;4991435;28;20022;-77
2023/01/10 06:15:40;;;;;;;10.02;5.28;;;3.80;99.90;;;;;;4991139;28;20400;-78
2023/01/10 06:18:07;;;;;;;6.93;5.07;;;3.80;99.90;;;;;;4991455;28;20033;-82
2023/01/10 06:20:33;;;;;;;6.50;4.50;;;3.80;99.90;;;;;;4974466;28;20392;-83
2023/01/10 06:23:03;;;;;;;7.88;4.57;;;3.80;99.90;;;;;;4992078;28;20023;-84
2023/01/10 06:25:32;;;;;;;7.30;4.47;;;3.70;99.90;;;;;;4991669;28;20033;-82
2023/01/10 06:27:58;;;;;;;8.65;5.18;;;3.70;99.90;;;;;;4975785;28;20038;-83
2023/01/10 06:30:24;;;;;;;302.10;113.55;;;3.80;99.90;;;;;;4989771;28;20019;-83
2023/01/10 06:32:49;;;;;;;139.70;58.35;;;3.80;99.90;;;;;;4982404;28;20026;-82
2023/01/10 06:35:16;;;;;;;75.05;31.08;;;3.80;99.90;;;;;;5057204;28;20023;-82
2023/01/10 06:37:42;;;;;;;208.75;81.10;;;3.80;99.90;;;;;;4971732;28;20022;-83
2023/01/10 06:40:08;;;;;;;170.23;64.78;;;3.80;99.90;;;;;;4954725;28;20071;-82
2023/01/10 06:42:34;;;;;;;104.28;42.15;;;3.90;99.90;;;;;;4954336;28;20026;-82
2023/01/10 06:45:00;;;;;;;122.28;48.25;;;3.80;99.90;;;;;;4954211;28;20027;-82
2023/01/10 06:47:26;;;;;;;238.93;93.60;;;3.80;99.90;;;;;;4971483;28;20035;-81
2023/01/10 06:49:51;;;;;;;99.15;38.38;;;3.80;99.90;;;;;;4954598;28;20022;-78
2023/01/10 06:52:17;;;;;;;52.03;24.58;;;3.70;99.90;;;;;;4954221;28;20025;-76
2023/01/10 06:54:43;;;;;;;22.38;12.07;;;3.70;99.90;;;;;;4954565;28;20027;-77
2023/01/10 06:57:09;;;;;;;79.40;36.53;;;3.70;99.90;;;;;;4954411;28;20050;-76
2023/01/10 06:59:34;;;;;;;62.08;26.08;;;3.70;99.90;;;;;;4953639;28;20057;-76
2023/01/10 07:02:00;;;;;;;51.65;23.98;;;3.70;99.90;;;;;;4956468;28;20084;-78
2023/01/10 07:04:26;;;;;;;88.45;41.00;;;3.70;99.90;;;;;;4973729;28;20027;-82
2023/01/10 07:06:55;;;;;;;112.95;48.60;;;3.70;99.90;;;;;;4990902;28;20038;-82
2023/01/10 07:09:21;;;;;;;56.88;26.92;;;3.70;99.90;;;;;;4985527;28;20026;-83
2023/01/10 07:11:46;;;;;;;62.05;29.48;;;3.70;99.90;;;;;;5057362;28;20054;-82
2023/01/10 07:14:12;;;;;;;82.28;37.33;;;3.70;99.90;;;;;;4953139;28;20395;-82
2023/01/10 07:16:37;;;;;;;29.38;15.10;;;3.70;99.90;;;;;;5048662;28;20479;-82
2023/01/10 07:19:03;;;;;;;34.95;17.20;;;3.60;99.90;;;;;;4957711;28;20030;-81
2023/01/10 07:21:28;;;;;;;40.55;21.33;;;3.60;99.90;;;;;;4971521;28;20027;-82
2023/01/10 07:23:54;;;;;;;24.08;15.00;;;3.60;99.90;;;;;;4970689;28;20061;-82
2023/01/10 07:26:20;;;;;;;30.67;16.40;;;3.60;99.90;;;;;;4976219;28;20030;-82
2023/01/10 07:28:49;;;;;;;31.15;21.00;;;3.60;99.90;;;;;;4974583;28;20038;-83
2023/01/10 07:31:16;;;;;;;38.45;21.38;;;3.60;99.90;;;;;;4989623;28;20057;-82
2023/01/10 07:33:42;;;;;;;31.20;16.35;;;3.70;99.90;;;;;;4985293;28;20026;-82
2023/01/10 07:36:08;;;;;;;28.63;16.67;;;3.60;99.90;;;;;;4986821;28;20079;-82
2023/01/10 07:38:34;;;;;;;28.60;16.48;;;3.60;99.90;;;;;;4970804;28;20019;-77
2023/01/10 07:41:03;;;;;;;19.52;12.05;;;3.60;99.90;;;;;;4989139;28;20030;-82
2023/01/10 07:43:29;;;;;;;39.55;20.25;;;3.60;99.90;;;;;;4970888;28;20055;-82
2023/01/10 07:45:58;;;;;;;20.48;13.15;;;3.60;99.90;;;;;;4971491;28;20022;-77
2023/01/10 07:48:24;;;;;;;23.13;12.73;;;3.60;99.90;;;;;;4988508;28;20067;-82
2023/01/10 07:50:58;;;;;;;23.80;13.85;;;3.60;99.90;;;;;;4988498;28;20109;-82
2023/01/10 07:53:24;;;;;;;21.65;12.30;;;3.70;99.90;;;;;;4986937;28;20053;-77
2023/01/10 07:55:50;;;;;;;20.95;11.45;;;3.60;99.90;;;;;;4987405;28;20099;-78
2023/01/10 07:58:16;;;;;;;22.10;11.27;;;3.60;99.90;;;;;;4988253;28;20038;-76
2023/01/10 08:00:41;;;;;;;25.73;14.68;;;3.70;99.90;;;;;;4987432;28;20018;-82
2023/01/10 08:03:09;;;;;;;51.90;28.42;;;3.70;99.90;;;;;;4977058;28;20563;-82
2023/01/10 08:05:35;;;;;;;30.92;16.40;;;3.70;99.90;;;;;;4951951;28;20080;-77
2023/01/10 08:08:07;;;;;;;23.70;13.63;;;3.70;99.90;;;;;;4980370;28;20050;-82
2023/01/10 08:10:34;;;;;;;23.30;12.10;;;3.70;99.90;;;;;;4973040;28;20538;-82
2023/01/10 08:13:00;;;;;;;27.90;15.45;;;3.70;99.90;;;;;;4975437;28;20025;-77
2023/01/10 08:15:25;;;;;;;20.40;11.38;;;3.70;99.90;;;;;;4989288;28;20023;-78
2023/01/10 08:17:51;;;;;;;21.05;11.95;;;3.70;99.90;;;;;;4982484;28;20023;-77
2023/01/10 08:20:16;;;;;;;24.25;11.00;;;3.70;99.90;;;;;;4953801;28;20034;-81
2023/01/10 08:22:42;;;;;;;21.35;12.05;;;3.70;99.90;;;;;;5057004;28;20087;-77
2023/01/10 08:25:08;;;;;;;17.15;9.77;;;3.70;99.90;;;;;;4973480;28;20060;-82
2023/01/10 08:27:34;;;;;;;19.75;11.50;;;3.70;99.90;;;;;;4989969;28;20031;-76
2023/01/10 08:29:59;;;;;;;14.90;9.50;;;3.70;99.90;;;;;;4990512;28;20068;-82
2023/01/10 08:32:25;;;;;;;13.32;6.90;;;3.70;99.90;;;;;;4989956;28;20388;-76
2023/01/10 08:34:51;;;;;;;14.35;6.97;;;3.70;99.90;;;;;;4974720;28;20030;-81
2023/01/10 08:37:16;;;;;;;11.07;6.20;;;3.70;99.90;;;;;;4975889;28;20030;-77
2023/01/10 08:39:42;;;;;;;11.48;6.80;;;3.70;99.90;;;;;;4976410;28;20026;-82
2023/01/10 08:42:07;;;;;;;10.15;5.55;;;3.70;99.90;;;;;;4993482;28;20026;-76
2023/01/10 08:44:33;;;;;;;10.05;7.32;;;3.70;99.90;;;;;;4975723;28;20067;-81
2023/01/10 08:46:59;;;;;;;8.07;5.47;;;3.70;99.90;;;;;;4976151;28;20373;-82
2023/01/10 08:49:24;;;;;;;7.53;4.88;;;3.70;99.90;;;;;;4993002;28;20106;-81
2023/01/10 08:51:50;;;;;;;9.63;6.10;;;3.70;99.90;;;;;;4992983;28;20030;-82
2023/01/10 08:54:15;;;;;;;12.82;7.70;;;3.70;99.90;;;;;;4976337;28;20026;-81
2023/01/10 08:56:41;;;;;;;10.60;4.97;;;3.70;99.90;;;;;;4993272;28;20030;-76
2023/01/10 08:59:07;;;;;;;10.52;6.72;;;3.70;99.90;;;;;;4991362;28;20026;-78
2023/01/10 09:01:33;;;;;;;21.00;7.85;;;3.70;99.90;;;;;;4993313;28;20030;-77
2023/01/10 09:03:58;;;;;;;10.60;6.07;;;3.70;99.90;;;;;;4979327;28;20034;-76
2023/01/10 09:06:24;;;;;;;7.68;5.07;;;3.70;99.90;;;;;;4992736;28;20038;-82
2023/01/10 09:08:50;;;;;;;9.00;6.50;;;3.70;99.90;;;;;;4992606;28;20034;-77
2023/01/10 09:11:16;;;;;;;7.85;4.65;;;3.70;99.90;;;;;;4975440;28;20109;-82
2023/01/10 09:13:41;;;;;;;7.20;5.50;;;3.70;99.90;;;;;;4974987;28;20176;-82
2023/01/10 09:16:08;;;;;;;8.90;4.38;;;3.70;99.90;;;;;;4992982;28;20027;-82
2023/01/10 09:18:33;;;;;;;8.25;4.05;;;3.70;99.90;;;;;;4975162;28;20092;-77
2023/01/10 09:21:00;;;;;;;5.88;4.07;;;3.70;99.90;;;;;;4975738;28;20060;-77
2023/01/10 09:23:25;;;;;;;7.18;4.25;;;3.70;99.90;;;;;;4992367;28;20103;-82
2023/01/10 09:25:53;;;;;;;3.97;3.45;;;3.70;99.90;;;;;;4992778;28;20475;-80
2023/01/10 09:28:23;;;;;;;6.97;4.13;;;3.70;99.90;;;;;;4992394;28;20209;-76
2023/01/10 09:30:49;;;;;;;3.40;3.10;;;3.70;99.90;;;;;;4992924;28;20018;-82
2023/01/10 09:33:14;;;;;;;5.60;3.25;;;3.70;99.90;;;;;;4975058;28;20360;-81
2023/01/10 09:35:41;;;;;;;4.93;3.13;;;3.60;99.90;;;;;;4975406;28;20025;-82
2023/01/10 09:38:10;;;;;;;10.88;5.22;;;3.70;99.90;;;;;;4992375;28;20058;-82
2023/01/10 09:41:00;;;;;;;11.25;6.43;;;3.60;99.90;;;;;;4975179;28;20033;-77
2023/01/10 09:43:28;;;;;;;6.97;3.85;;;3.60;99.90;;;;;;4974863;28;20046;-81
2023/01/10 09:46:12;;;;;;;3.85;3.22;;;3.60;99.90;;;;;;4991466;28;20022;-81
2023/01/10 09:49:13;;;;;;;5.57;3.90;;;3.60;99.90;;;;;;4974972;28;20488;-81
2023/01/10 09:51:44;;;;;;;8.32;4.40;;;3.60;99.90;;;;;;4963153;28;20125;-77
2023/01/10 09:54:24;;;;;;;3.67;3.10;;;3.60;99.90;;;;;;4955745;28;20380;-76
2023/01/10 09:56:51;;;;;;;3.13;2.42;;;3.70;99.90;;;;;;4956346;28;20030;-76
2023/01/10 09:59:21;;;;;;;6.55;3.08;;;3.70;99.90;;;;;;4991495;28;20022;-81
2023/01/10 10:01:51;;;;;;;4.57;2.55;;;3.70;99.90;;;;;;4991069;28;20026;-76
2023/01/10 10:04:32;;;;;;;8.00;4.28;;;3.70;99.90;;;;;;4975545;28;20019;-81
2023/01/10 10:06:58;;;;;;;3.50;2.75;;;3.70;99.90;;;;;;4955453;28;20031;-76
2023/01/10 10:09:32;;;;;;;3.00;2.05;;;3.70;99.90;;;;;;4988925;28;20033;-78
2023/01/10 10:12:23;;;;;;;5.40;3.22;;;3.80;99.90;;;;;;4992106;28;20385;-76
2023/01/10 10:15:04;;;;;;;6.68;4.80;;;3.80;99.90;;;;;;4972997;28;20392;-82
2023/01/10 10:17:49;;;;;;;4.70;4.22;;;3.80;99.90;;;;;;4961194;28;20037;-81
2023/01/10 10:20:53;;;;;;;8.07;4.68;;;3.80;99.90;;;;;;4974655;28;20445;-76
2023/01/10 10:23:30;;;;;;;;;;;3.80;99.90;;;;;;4992095;28;20056;-76
2023/01/10 10:26:14;;;;;;;12.65;6.43;;;3.80;99.90;;;;;;4974662;28;19912;-76
2023/01/10 10:28:52;;;;;;;13.05;7.05;;;3.70;99.90;;;;;;4974325;28;20117;-76
2023/01/10 10:31:26;;;;;;;12.30;7.30;;;3.70;99.90;;;;;;4991914;28;20022;-81
2023/01/10 10:33:57;;;;;;;10.57;7.57;;;3.70;99.90;;;;;;4974218;28;20029;-82
2023/01/10 10:36:25;;;;;;;16.00;8.43;;;3.70;99.90;;;;;;4991807;28;20030;-81
2023/01/10 10:38:55;;;;;;;13.45;8.55;;;3.80;99.90;;;;;;4974025;28;20117;-76
2023/01/10 10:41:43;;;;;;;16.80;8.75;;;3.80;99.90;;;;;;4991653;28;20357;-81
2023/01/10 10:44:26;;;;;;;14.30;8.48;;;3.80;99.90;;;;;;4954902;28;20050;-76
2023/01/10 10:46:52;;;;;;;16.65;11.13;;;3.80;99.90;;;;;;4972659;28;20118;-82
2023/01/10 10:49:40;;;;;;;16.30;9.95;;;3.80;99.90;;;;;;4991674;28;20049;-81
2023/01/10 10:52:35;;;;;;;21.70;10.80;;;3.80;99.90;;;;;;4973882;28;20388;-81
2023/01/10 10:55:04;;;;;;;25.75;12.25;;;3.80;99.90;;;;;;4974566;28;20121;-82
2023/01/10 10:57:32;;;;;;;24.63;13.80;;;3.90;99.90;;;;;;4990961;28;20435;-81
2023/01/10 11:00:00;;;;;;;25.70;14.23;;;3.90;99.90;;;;;;4974137;28;20014;-81
2023/01/10 11:02:27;;;;;;;29.65;15.00;;;4.00;99.90;;;;;;4973760;28;20060;-81
2023/01/10 11:04:57;;;;;;;30.08;15.30;;;4.00;99.90;;;;;;4974153;28;20092;-81
2023/01/10 11:07:24;;;;;;;30.33;15.88;;;4.00;99.90;;;;;;4990624;28;20038;-76
2023/01/10 11:12:20;;;;;;;33.22;17.95;;;3.90;99.90;;;;;;4986956;28;20548;-81
2023/01/10 11:14:48;;;;;;;33.60;17.35;;;3.90;99.90;;;;;;4971817;28;20073;-82
2023/01/10 11:17:20;;;;;;;32.08;18.33;;;3.90;99.90;;;;;;4957586;28;20030;-81
2023/01/10 11:20:00;;;;;;;35.38;18.65;;;3.90;99.90;;;;;;4973897;28;20029;-81
2023/01/10 11:22:53;;;;;;;34.17;17.45;;;3.90;99.90;;;;;;4990787;28;20018;-81
2023/01/10 11:25:21;;;;;;;29.38;16.70;;;3.90;99.90;;;;;;4987406;28;20066;-77
2023/01/10 11:28:02;;;;;;;32.88;17.00;;;3.90;99.90;;;;;;4984171;28;20031;-81
2023/01/10 11:30:30;;;;;;;33.75;19.27;;;3.80;99.90;;;;;;4954349;28;20487;-81
2023/01/10 11:33:06;;;;;;;27.20;17.13;;;3.90;99.90;;;;;;4958997;28;20027;-77
2023/01/10 11:35:37;;;;;;;33.13;17.73;;;3.80;99.90;;;;;;4991117;28;20032;-77
2023/01/10 11:38:27;;;;;;;28.27;17.00;;;3.80;99.90;;;;;;4990719;28;20062;-82
2023/01/10 11:41:00;;;;;;;27.23;15.95;;;3.90;99.90;;;;;;4990950;28;20376;-76
2023/01/10 11:43:26;;;;;;;26.08;15.20;;;3.90;99.90;;;;;;4990927;28;20396;-80
2023/01/10 11:46:01;;;;;;;28.92;17.45;;;3.90;99.90;;;;;;4990983;28;20022;-81
2023/01/10 11:48:43;;;;;;;27.38;15.75;;;3.80;99.90;;;;;;4976733;28;20031;-81
2023/01/10 11:51:16;;;;;;;25.58;16.05;;;3.90;99.90;;;;;;4971508;28;20477;-81
2023/01/10 11:53:43;;;;;;;25.50;14.63;;;3.90;99.90;;;;;;4986322;28;20026;-77
2023/01/10 11:56:25;;;;;;;26.73;17.10;;;3.80;99.90;;;;;;4973317;28;20496;-81
2023/01/10 11:58:51;;;;;;;25.33;15.40;;;3.80;99.90;;;;;;4973033;28;20472;-77
2023/01/10 12:01:39;;;;;;;23.08;15.55;;;3.80;99.90;;;;;;4990759;28;20054;-81
2023/01/10 12:04:05;;;;;;;24.48;15.38;;;3.90;99.90;;;;;;4984385;28;20027;-77
2023/01/10 12:06:32;;;;;;;25.75;15.50;;;3.90;99.90;;;;;;4989369;28;20041;-77
2023/01/10 12:08:59;;;;;;;25.52;15.45;;;3.90;99.90;;;;;;4965455;28;20030;-76
2023/01/10 12:11:29;;;;;;;25.85;14.80;;;3.90;99.90;;;;;;4957128;28;20092;-81
2023/01/10 12:13:58;;;;;;;24.45;16.05;;;3.90;99.90;;;;;;4969613;28;20027;-81
2023/01/10 12:16:27;;;;;;;27.00;16.45;;;3.90;99.90;;;;;;4994075;28;20069;-77
2023/01/10 12:19:12;;;;;;;24.10;15.43;;;3.90;99.90;;;;;;4993530;28;20015;-76
2023/01/10 12:21:40;;;;;;;27.73;16.67;;;3.90;99.90;;;;;;4976291;28;20026;-81
2023/01/10 12:24:23;;;;;;;29.13;16.90;;;3.90;99.90;;;;;;4987478;28;20022;-81
2023/01/10 12:26:52;;;;;;;26.17;13.98;;;3.90;99.90;;;;;;4991367;28;20088;-81
2023/01/10 12:29:24;;;;;;;23.83;14.55;;;3.90;99.90;;;;;;4956905;28;20068;-76
2023/01/10 12:31:52;;;;;;;26.80;16.00;;;3.90;99.90;;;;;;4974391;28;20075;-82
2023/01/10 12:34:25;;;;;;;30.00;18.08;;;3.90;99.90;;;;;;4990150;28;20022;-77
2023/01/10 12:37:13;;;;;;;20.45;14.68;;;3.90;99.90;;;;;;4993557;28;20092;-81
2023/01/10 12:39:45;;;;;;;27.48;15.63;;;3.90;99.90;;;;;;4974018;28;20063;-77
2023/01/10 12:45:34;;;;;;;30.58;17.30;;;4.00;99.90;;;;;;4974582;28;20034;-76
2023/01/10 12:48:01;;;;;;;24.08;14.10;;;3.90;99.90;;;;;;4984161;28;20038;-76
2023/01/10 12:50:45;;;;;;;26.58;14.48;;;3.90;99.90;;;;;;4975977;28;20022;-81
2023/01/10 12:53:30;;;;;;;28.00;16.15;;;4.00;99.90;;;;;;4975706;28;20046;-81
2023/01/10 12:55:59;;;;;;;32.35;16.48;;;4.00;99.90;;;;;;4975989;28;20110;-81
2023/01/10 12:58:44;;;;;;;30.55;18.10;;;4.00;99.90;;;;;;4992874;28;20109;-81
2023/01/10 13:01:20;;;;;;;43.20;23.65;;;4.00;99.90;;;;;;4993558;28;20014;-76
2023/01/10 13:03:54;;;;;;;53.75;28.30;;;4.00;99.90;;;;;;4992963;28;20023;-81
2023/01/10 13:06:28;;;;;;;48.03;27.10;;;4.00;99.90;;;;;;4991899;28;20037;-76
2023/01/10 13:08:55;;;;;;;44.28;24.35;;;4.00;99.90;;;;;;4960635;28;20019;-81
2023/01/10 13:11:24;;;;;;;30.70;19.15;;;4.00;99.90;;;;;;4956422;28;20046;-81
2023/01/10 13:13:57;;;;;;;35.13;21.33;;;3.90;99.90;;;;;;4989576;28;20104;-81
2023/01/10 13:16:28;;;;;;;42.42;23.48;;;3.90;99.90;;;;;;4993264;28;20030;-76